Komokwa — ZJL8536 — position and weather

sailwx.info

Track history (hours):
 
Tides and Currents Weather Stations Pressure Air Temp Water Temp Dewpoint Dewpoint Depression Visibility Wind Speed Wind Dir Waves Ship Positions

Komokwa

Last reported at 2017-Oct-27 23:08 UTC. Time now 2017-Nov-20 12:05 UTC.
Position N 32°42' W 117°10'.
Warning: this ship's position is 23 days out of date.

Length 37 m; draft 3 m.

Type: Ship. MMSI: 378111827.

Date/timePositionNaut miles runAvg speedWind from/ knotsBaromVisibWave heightAir tempDewpointWater temp
2017-Oct-27 23:08N 32°42' W 117°10'1 6.9
2017-Oct-27 23:00N 32°41' W 117°09'4 6.5
2017-Oct-27 22:22N 32°38' W 117°07'0 0.2
2017-Oct-27 21:22N 32°38' W 117°06'0 0.0
2017-Oct-27 20:58N 32°38' W 117°06'0 0.0
2017-Oct-27 18:58N 32°38' W 117°06'0 0.0
2017-Oct-27 17:52N 32°38' W 117°06'0 0.0
2017-Oct-27 17:22N 32°38' W 117°06'0 0.0
2017-Oct-27 16:25N 32°38' W 117°06'0 0.0
2017-Oct-27 15:46N 32°38' W 117°06'0 0.0
2017-Oct-27 15:28N 32°38' W 117°06'0 0.0
2017-Oct-27 14:58N 32°38' W 117°06'0 0.0
2017-Oct-27 14:22N 32°38' W 117°06'0 0.0
2017-Oct-27 13:55N 32°38' W 117°06'0 0.0
2017-Oct-27 13:22N 32°38' W 117°06'0 0.0
2017-Oct-27 12:55N 32°38' W 117°06'0 0.0
2017-Oct-27 12:28N 32°38' W 117°06'0 0.0
2017-Oct-27 11:52N 32°38' W 117°06'0 0.0
2017-Oct-27 11:28N 32°38' W 117°06'0 0.0
2017-Oct-27 10:58N 32°38' W 117°06'0 0.0
2017-Oct-27 10:28N 32°38' W 117°06'0 0.0
2017-Oct-27 09:58N 32°38' W 117°06'0 0.0
2017-Oct-27 09:28N 32°38' W 117°06'0 0.0
2017-Oct-27 08:58N 32°38' W 117°06'0 0.0
2017-Oct-27 08:22N 32°38' W 117°06'0 0.0
2017-Oct-27 07:58N 32°38' W 117°06'0 0.0
2017-Oct-27 07:28N 32°38' W 117°06'0 0.0
2017-Oct-27 06:52N 32°38' W 117°06'0 0.0
2017-Oct-27 06:28N 32°38' W 117°06'0 0.0
2017-Oct-27 05:52N 32°38' W 117°06'0 0.0
2017-Oct-27 05:28N 32°38' W 117°06'0 0.0
2017-Oct-27 04:52N 32°38' W 117°06'0 0.0
2017-Oct-27 04:28N 32°38' W 117°06'0 0.0
2017-Oct-27 03:52N 32°38' W 117°06'0 0.0
2017-Oct-27 03:28N 32°38' W 117°06'0 0.0
2017-Oct-27 02:58N 32°38' W 117°06'0 0.0
2017-Oct-27 02:28N 32°38' W 117°06'12 0.4
2017-Oct-25 23:41N 32°43' W 117°19'2 9.4
2017-Oct-25 23:30N 32°44' W 117°21'5 9.6
2017-Oct-25 23:00N 32°48' W 117°24'5 9.7
2017-Oct-25 22:30N 32°52' W 117°28'5 9.9
2017-Oct-25 22:00N 32°56' W 117°31'5 9.8
2017-Oct-25 21:30N 32°60' W 117°35'5 9.6
2017-Oct-25 21:00N 33°03' W 117°38'5 9.6
2017-Oct-25 20:30N 33°07' W 117°42'5 9.9
2017-Oct-25 20:00N 33°11' W 117°45'30 9.6
2017-Oct-25 16:54N 33°35' W 118°07'3 8.9
2017-Oct-25 16:30N 33°37' W 118°10'5 9.3
2017-Oct-25 16:00N 33°39' W 118°16'6 9.8
2017-Oct-25 15:22N 33°42' W 118°22'  
2017-Oct-19 19:26N 33°56' W 118°42'4 9.9
2017-Oct-19 19:00N 33°56' W 118°47'5 9.6
2017-Oct-19 18:31N 33°56' W 118°53'5 9.4
2017-Oct-19 17:59N 33°56' W 118°59'4 9.4
2017-Oct-19 17:30N 33°57' W 119°05'5 9.4
2017-Oct-19 17:00N 33°59' W 119°10'5 9.4
2017-Oct-19 16:30N 34°01' W 119°14'5 9.1
2017-Oct-19 16:00N 34°03' W 119°20'5 9.3
2017-Oct-19 15:30N 34°04' W 119°25'5 9.3
2017-Oct-19 14:59N 34°05' W 119°31'5 9.8
2017-Oct-19 14:30N 34°07' W 119°36'5 9.8
2017-Oct-19 14:00N 34°08' W 119°42'5 9.6
2017-Oct-19 13:29N 34°10' W 119°48'5 9.6
2017-Oct-19 13:00N 34°11' W 119°53'5 9.6
2017-Oct-19 12:31N 34°12' W 119°59'5 9.3
2017-Oct-19 12:00N 34°13' W 120°04'5 9.3
2017-Oct-19 11:29N 34°14' W 120°10'4 9.1
2017-Oct-19 11:01N 34°15' W 120°15'5 9.1
2017-Oct-19 10:30N 34°17' W 120°20'5 9.0
2017-Oct-19 10:00N 34°17' W 120°25'4 8.7
2017-Oct-19 09:30N 34°18' W 120°31'5 8.7
2017-Oct-19 08:54N 34°20' W 120°37'4 8.7
2017-Oct-19 08:29N 34°21' W 120°41'4 9.0
2017-Oct-19 08:00N 34°22' W 120°46'4 8.8
2017-Oct-19 07:30N 34°24' W 120°51'5 9.0
2017-Oct-19 06:59N 34°25' W 120°56'5 8.9
2017-Oct-19 06:29N 34°27' W 121°01'4 8.1
2017-Oct-19 05:58N 34°28' W 121°06'0 0.2
2017-Oct-19 05:31N 34°28' W 121°06'3 5.6
2017-Oct-19 05:00N 34°30' W 121°09'4 8.2
2017-Oct-19 04:29N 34°32' W 121°13'4 8.7
2017-Oct-19 04:00N 34°35' W 121°16'4 8.5
2017-Oct-19 03:30N 34°38' W 121°20'4 8.5
2017-Oct-19 03:01N 34°42' W 121°23'4 8.3
2017-Oct-19 02:30N 34°45' W 121°26'9 8.6
2017-Oct-19 01:30N 34°53' W 121°31'4 9.0
2017-Oct-19 01:00N 34°57' W 121°34'5 9.3
2017-Oct-19 00:27N 35°01' W 121°37'5 9.5
2017-Oct-18 23:59N 35°05' W 121°40'4 9.5
2017-Oct-18 23:31N 35°09' W 121°43'6 9.4
2017-Oct-18 22:55N 35°13' W 121°47'8 9.5
2017-Oct-18 22:02N 35°20' W 121°53'0 9.7
2017-Oct-18 21:59N 35°20' W 121°53'8 9.3
2017-Oct-18 21:11N 35°27' W 121°58'2 9.0
2017-Oct-18 21:00N 35°28' W 121°59'7 9.4
2017-Oct-18 20:13N 35°34' W 122°04'2 9.7
2017-Oct-18 20:00N 35°36' W 122°05'5 9.9
2017-Oct-18 19:30N 35°40' W 122°08'18 9.7
2017-Oct-18 17:37N 35°56' W 122°20'2910.1
2017-Oct-18 14:46N 36°21' W 122°37'810.7
2017-Oct-18 13:59N 36°29' W 122°42'510.3
2017-Oct-18 13:30N 36°33' W 122°45'810.2
2017-Oct-18 12:41N 36°40' W 122°50'310.0
2017-Oct-18 12:21N 36°43' W 122°53'310.0
2017-Oct-18 12:00N 36°46' W 122°55'510.1
2017-Oct-18 11:30N 36°50' W 122°58'510.1
2017-Oct-18 11:00N 36°54' W 123°02'5 9.9
2017-Oct-18 10:30N 36°58' W 123°05'510.1
2017-Oct-18 10:00N 37°03' W 123°09'6 9.7
2017-Oct-18 09:23N 37°08' W 123°13'7 9.5
2017-Oct-18 08:36N 37°14' W 123°17'17 9.5
2017-Oct-18 06:47N 37°29' W 123°28'4 9.4
2017-Oct-18 06:24N 37°32' W 123°31'5 9.8
2017-Oct-18 05:51N 37°37' W 123°34'410.4
2017-Oct-18 05:29N 37°40' W 123°36'510.0
2017-Oct-18 05:00N 37°44' W 123°39'5 9.6
2017-Oct-18 04:30N 37°48' W 123°42'5 9.7
2017-Oct-18 04:00N 37°53' W 123°45'5 9.8
2017-Oct-18 03:30N 37°57' W 123°48'510.1
2017-Oct-18 03:00N 38°02' W 123°50'510.4
2017-Oct-18 02:30N 38°07' W 123°52'510.4
2017-Oct-18 02:00N 38°12' W 123°55'510.2
2017-Oct-18 01:30N 38°16' W 123°57'510.1
2017-Oct-18 01:00N 38°21' W 123°59'510.0
2017-Oct-18 00:30N 38°26' W 124°02'5 9.9
2017-Oct-18 00:00N 38°30' W 124°05'  
Track history (hours):
 
Tides and Currents Weather Stations Pressure Air Temp Water Temp Dewpoint Dewpoint Depression Visibility Wind Speed Wind Dir Waves Ship Positions

Komokwa

Last reported at 2017-Oct-27 23:08 UTC. Time now 2017-Nov-20 12:05 UTC.
Position N 32°42' W 117°10'.
Warning: this ship's position is 23 days out of date.

Length 37 m; draft 3 m.

Type: Ship. MMSI: 378111827.

Date/timePositionNaut miles runAvg speedWind from/ knotsBaromVisibWave heightAir tempDewpointWater temp
2017-Oct-27 23:08N 32°42' W 117°10'1 6.9
2017-Oct-27 23:00N 32°41' W 117°09'4 6.5
2017-Oct-27 22:22N 32°38' W 117°07'0 0.2
2017-Oct-27 21:22N 32°38' W 117°06'0 0.0
2017-Oct-27 20:58N 32°38' W 117°06'0 0.0
2017-Oct-27 18:58N 32°38' W 117°06'0 0.0
2017-Oct-27 17:52N 32°38' W 117°06'0 0.0
2017-Oct-27 17:22N 32°38' W 117°06'0 0.0
2017-Oct-27 16:25N 32°38' W 117°06'0 0.0
2017-Oct-27 15:46N 32°38' W 117°06'0 0.0
2017-Oct-27 15:28N 32°38' W 117°06'0 0.0
2017-Oct-27 14:58N 32°38' W 117°06'0 0.0
2017-Oct-27 14:22N 32°38' W 117°06'0 0.0
2017-Oct-27 13:55N 32°38' W 117°06'0 0.0
2017-Oct-27 13:22N 32°38' W 117°06'0 0.0
2017-Oct-27 12:55N 32°38' W 117°06'0 0.0
2017-Oct-27 12:28N 32°38' W 117°06'0 0.0
2017-Oct-27 11:52N 32°38' W 117°06'0 0.0
2017-Oct-27 11:28N 32°38' W 117°06'0 0.0
2017-Oct-27 10:58N 32°38' W 117°06'0 0.0
2017-Oct-27 10:28N 32°38' W 117°06'0 0.0
2017-Oct-27 09:58N 32°38' W 117°06'0 0.0
2017-Oct-27 09:28N 32°38' W 117°06'0 0.0
2017-Oct-27 08:58N 32°38' W 117°06'0 0.0
2017-Oct-27 08:22N 32°38' W 117°06'0 0.0
2017-Oct-27 07:58N 32°38' W 117°06'0 0.0
2017-Oct-27 07:28N 32°38' W 117°06'0 0.0
2017-Oct-27 06:52N 32°38' W 117°06'0 0.0
2017-Oct-27 06:28N 32°38' W 117°06'0 0.0
2017-Oct-27 05:52N 32°38' W 117°06'0 0.0
2017-Oct-27 05:28N 32°38' W 117°06'0 0.0
2017-Oct-27 04:52N 32°38' W 117°06'0 0.0
2017-Oct-27 04:28N 32°38' W 117°06'0 0.0
2017-Oct-27 03:52N 32°38' W 117°06'0 0.0
2017-Oct-27 03:28N 32°38' W 117°06'0 0.0
2017-Oct-27 02:58N 32°38' W 117°06'0 0.0
2017-Oct-27 02:28N 32°38' W 117°06'12 0.4
2017-Oct-25 23:41N 32°43' W 117°19'2 9.4
2017-Oct-25 23:30N 32°44' W 117°21'5 9.6
2017-Oct-25 23:00N 32°48' W 117°24'5 9.7
2017-Oct-25 22:30N 32°52' W 117°28'5 9.9
2017-Oct-25 22:00N 32°56' W 117°31'5 9.8
2017-Oct-25 21:30N 32°60' W 117°35'5 9.6
2017-Oct-25 21:00N 33°03' W 117°38'5 9.6
2017-Oct-25 20:30N 33°07' W 117°42'5 9.9
2017-Oct-25 20:00N 33°11' W 117°45'30 9.6
2017-Oct-25 16:54N 33°35' W 118°07'3 8.9
2017-Oct-25 16:30N 33°37' W 118°10'5 9.3
2017-Oct-25 16:00N 33°39' W 118°16'6 9.8
2017-Oct-25 15:22N 33°42' W 118°22'  
2017-Oct-19 19:26N 33°56' W 118°42'4 9.9
2017-Oct-19 19:00N 33°56' W 118°47'5 9.6
2017-Oct-19 18:31N 33°56' W 118°53'5 9.4
2017-Oct-19 17:59N 33°56' W 118°59'4 9.4
2017-Oct-19 17:30N 33°57' W 119°05'5 9.4
2017-Oct-19 17:00N 33°59' W 119°10'5 9.4
2017-Oct-19 16:30N 34°01' W 119°14'5 9.1
2017-Oct-19 16:00N 34°03' W 119°20'5 9.3
2017-Oct-19 15:30N 34°04' W 119°25'5 9.3
2017-Oct-19 14:59N 34°05' W 119°31'5 9.8
2017-Oct-19 14:30N 34°07' W 119°36'5 9.8
2017-Oct-19 14:00N 34°08' W 119°42'5 9.6
2017-Oct-19 13:29N 34°10' W 119°48'5 9.6
2017-Oct-19 13:00N 34°11' W 119°53'5 9.6
2017-Oct-19 12:31N 34°12' W 119°59'5 9.3
2017-Oct-19 12:00N 34°13' W 120°04'5 9.3
2017-Oct-19 11:29N 34°14' W 120°10'4 9.1
2017-Oct-19 11:01N 34°15' W 120°15'5 9.1
2017-Oct-19 10:30N 34°17' W 120°20'5 9.0
2017-Oct-19 10:00N 34°17' W 120°25'4 8.7
2017-Oct-19 09:30N 34°18' W 120°31'5 8.7
2017-Oct-19 08:54N 34°20' W 120°37'4 8.7
2017-Oct-19 08:29N 34°21' W 120°41'4 9.0
2017-Oct-19 08:00N 34°22' W 120°46'4 8.8
2017-Oct-19 07:30N 34°24' W 120°51'5 9.0
2017-Oct-19 06:59N 34°25' W 120°56'5 8.9
2017-Oct-19 06:29N 34°27' W 121°01'4 8.1
2017-Oct-19 05:58N 34°28' W 121°06'0 0.2
2017-Oct-19 05:31N 34°28' W 121°06'3 5.6
2017-Oct-19 05:00N 34°30' W 121°09'4 8.2
2017-Oct-19 04:29N 34°32' W 121°13'4 8.7
2017-Oct-19 04:00N 34°35' W 121°16'4 8.5
2017-Oct-19 03:30N 34°38' W 121°20'4 8.5
2017-Oct-19 03:01N 34°42' W 121°23'4 8.3
2017-Oct-19 02:30N 34°45' W 121°26'9 8.6
2017-Oct-19 01:30N 34°53' W 121°31'4 9.0
2017-Oct-19 01:00N 34°57' W 121°34'5 9.3
2017-Oct-19 00:27N 35°01' W 121°37'5 9.5
2017-Oct-18 23:59N 35°05' W 121°40'4 9.5
2017-Oct-18 23:31N 35°09' W 121°43'6 9.4
2017-Oct-18 22:55N 35°13' W 121°47'8 9.5
2017-Oct-18 22:02N 35°20' W 121°53'0 9.7
2017-Oct-18 21:59N 35°20' W 121°53'8 9.3
2017-Oct-18 21:11N 35°27' W 121°58'2 9.0
2017-Oct-18 21:00N 35°28' W 121°59'7 9.4
2017-Oct-18 20:13N 35°34' W 122°04'2 9.7
2017-Oct-18 20:00N 35°36' W 122°05'5 9.9
2017-Oct-18 19:30N 35°40' W 122°08'18 9.7
2017-Oct-18 17:37N 35°56' W 122°20'2910.1
2017-Oct-18 14:46N 36°21' W 122°37'810.7
2017-Oct-18 13:59N 36°29' W 122°42'510.3
2017-Oct-18 13:30N 36°33' W 122°45'810.2
2017-Oct-18 12:41N 36°40' W 122°50'310.0
2017-Oct-18 12:21N 36°43' W 122°53'310.0
2017-Oct-18 12:00N 36°46' W 122°55'510.1
2017-Oct-18 11:30N 36°50' W 122°58'510.1
2017-Oct-18 11:00N 36°54' W 123°02'5 9.9
2017-Oct-18 10:30N 36°58' W 123°05'510.1
2017-Oct-18 10:00N 37°03' W 123°09'6 9.7
2017-Oct-18 09:23N 37°08' W 123°13'7 9.5
2017-Oct-18 08:36N 37°14' W 123°17'17 9.5
2017-Oct-18 06:47N 37°29' W 123°28'4 9.4
2017-Oct-18 06:24N 37°32' W 123°31'5 9.8
2017-Oct-18 05:51N 37°37' W 123°34'410.4
2017-Oct-18 05:29N 37°40' W 123°36'510.0
2017-Oct-18 05:00N 37°44' W 123°39'5 9.6
2017-Oct-18 04:30N 37°48' W 123°42'5 9.7
2017-Oct-18 04:00N 37°53' W 123°45'5 9.8
2017-Oct-18 03:30N 37°57' W 123°48'510.1
2017-Oct-18 03:00N 38°02' W 123°50'510.4
2017-Oct-18 02:30N 38°07' W 123°52'510.4
2017-Oct-18 02:00N 38°12' W 123°55'510.2
2017-Oct-18 01:30N 38°16' W 123°57'510.1
2017-Oct-18 01:00N 38°21' W 123°59'510.0
2017-Oct-18 00:30N 38°26' W 124°02'5 9.9
2017-Oct-18 00:00N 38°30' W 124°05'  

Dump ship's entire track history